Hope Mills, North Carolina
Current Conditions -  °F | °C
As of 3:53 AM on Thursday 23 Oct 2014 (Local Time) from KFAY Reporting Station
Clear Clear  
Wind Chill: 50°   Ceiling: Unl
Heat Index: 50°   Visibility: 10mi
Dew Point: 41°   Wind: 8mph
Humidity: 71%   Direction: 290°WNW
Pressure: 30.01"   Gusts: NA
Location:  34.97°N, 78.95°W
Report Text: KFAY 230753Z AUTO 29007KT 10SM CLR 10/05 A3001 RMK AO2 SLP157 T01000050
Loading
Personal Weather Stations






























Interactive Weather Map
Tropical Storm Tracking
New forecast layout! Learn more

10-Day Weather Forecast

Advertisements
Track Severe Weather on mobile